BAW786 EGLL-ESGG
Flight info
| Callsign | BAW786 |
|---|---|
| Flight time | 1h 28m |
| Altitude | 39000 |
| Route | BPK7G BPK Q295 PAAVO M604 GIVPO DCT LARGA DCT SOPTO DCT AAL N607 MAKUR MAKUR4S |
| Aircraft | A319/M-SDE3FGHIRWY/LB1 |
Departure
| Time | 2026-05-04 09:14 |
|---|---|
| Airport | London Heathrow Airport (EGLL) |
Arrival
| Time | 2026-05-04 10:42 |
|---|---|
| Airport | Göteborg Landvetter Airport (ESGG) |
| Time | Latitude | Longitude | Altitude | Speed | Heading |
|---|---|---|---|---|---|
| 2026-05-04 08:52 | 51.47286 | -0.46138 | 91 ft | 0 kts | 235° |
| 2026-05-04 08:54 | 51.47287 | -0.46138 | 86 ft | 0 kts | 235° |
| 2026-05-04 09:02 | 51.47287 | -0.46137 | 86 ft | 1 kts | 235° |
| 2026-05-04 09:02 | 51.47299 | -0.46107 | 89 ft | 4 kts | 236° |
| 2026-05-04 09:02 | 51.47315 | -0.46071 | 88 ft | 4 kts | 237° |
| 2026-05-04 09:02 | 51.47328 | -0.46034 | 90 ft | 4 kts | 243° |
| 2026-05-04 09:03 | 51.47334 | -0.46015 | 91 ft | 4 kts | 252° |
| 2026-05-04 09:03 | 51.47346 | -0.46042 | 88 ft | 4 kts | 319° |
| 2026-05-04 09:03 | 51.47366 | -0.46064 | 87 ft | 4 kts | 325° |
| 2026-05-04 09:03 | 51.47388 | -0.46088 | 87 ft | 4 kts | 325° |
| 2026-05-04 09:04 | 51.47393 | -0.46094 | 89 ft | 0 kts | 325° |
| 2026-05-04 09:06 | 51.47395 | -0.46096 | 87 ft | 2 kts | 325° |
| 2026-05-04 09:07 | 51.47510 | -0.44868 | 86 ft | 30 kts | 89° |
| 2026-05-04 09:08 | 51.47503 | -0.44551 | 86 ft | 29 kts | 91° |
| 2026-05-04 09:08 | 51.47505 | -0.44211 | 86 ft | 32 kts | 89° |
| 2026-05-04 09:08 | 51.47505 | -0.43881 | 88 ft | 19 kts | 91° |
| 2026-05-04 09:08 | 51.47427 | -0.43756 | 86 ft | 20 kts | 180° |
| 2026-05-04 09:09 | 51.47279 | -0.43754 | 86 ft | 23 kts | 179° |
| 2026-05-04 09:09 | 51.47113 | -0.43753 | 86 ft | 25 kts | 179° |
| 2026-05-04 09:09 | 51.46932 | -0.43751 | 86 ft | 27 kts | 179° |
| 2026-05-04 09:09 | 51.46778 | -0.43804 | 89 ft | 21 kts | 206° |
| 2026-05-04 09:10 | 51.46642 | -0.43829 | 86 ft | 14 kts | 180° |
| 2026-05-04 09:10 | 51.46577 | -0.43830 | 85 ft | 3 kts | 180° |
| 2026-05-04 09:10 | 51.46563 | -0.43830 | 85 ft | 1 kts | 180° |
| 2026-05-04 09:10 | 51.46539 | -0.43830 | 85 ft | 5 kts | 180° |
| 2026-05-04 09:11 | 51.46501 | -0.43836 | 86 ft | 6 kts | 204° |
| 2026-05-04 09:11 | 51.46493 | -0.43879 | 86 ft | 0 kts | 269° |
| 2026-05-04 09:11 | 51.46493 | -0.43911 | 86 ft | 12 kts | 270° |
| 2026-05-04 09:11 | 51.46494 | -0.44452 | 88 ft | 83 kts | 270° |
| 2026-05-04 09:12 | 51.46488 | -0.45717 | 86 ft | 142 kts | 270° |
| 2026-05-04 09:12 | 51.46488 | -0.47510 | 337 ft | 168 kts | 272° |
| 2026-05-04 09:14 | 51.50619 | -0.63397 | 5005 ft | 268 kts | 309° |
| 2026-05-04 09:14 | 51.52153 | -0.65083 | 5964 ft | 274 kts | 343° |
| 2026-05-04 09:14 | 51.54065 | -0.65177 | 6910 ft | 280 kts | 9° |
| 2026-05-04 09:14 | 51.55923 | -0.64202 | 7853 ft | 286 kts | 30° |
| 2026-05-04 09:15 | 51.57469 | -0.62181 | 8781 ft | 291 kts | 51° |
| 2026-05-04 09:15 | 51.58700 | -0.59569 | 9741 ft | 295 kts | 54° |
| 2026-05-04 09:15 | 51.59947 | -0.56889 | 10385 ft | 310 kts | 54° |
| 2026-05-04 09:15 | 51.61287 | -0.54022 | 10781 ft | 330 kts | 53° |
| 2026-05-04 09:17 | 51.70203 | -0.26273 | 16725 ft | 365 kts | 65° |
| 2026-05-04 09:18 | 51.71332 | -0.22580 | 17439 ft | 368 kts | 65° |
| 2026-05-04 09:18 | 51.72471 | -0.18849 | 18156 ft | 372 kts | 65° |
| 2026-05-04 09:18 | 51.73620 | -0.15086 | 18785 ft | 376 kts | 65° |
| 2026-05-04 09:18 | 51.74667 | -0.11200 | 19358 ft | 380 kts | 73° |
| 2026-05-04 09:19 | 51.75283 | -0.07047 | 19922 ft | 383 kts | 83° |
| 2026-05-04 09:19 | 51.75632 | -0.02763 | 20508 ft | 387 kts | 84° |
| 2026-05-04 09:19 | 51.76254 | 0.01507 | 21024 ft | 395 kts | 69° |
| 2026-05-04 09:19 | 51.77590 | 0.05400 | 21580 ft | 400 kts | 58° |
| 2026-05-04 09:20 | 51.79098 | 0.09209 | 22152 ft | 404 kts | 57° |
| 2026-05-04 09:20 | 51.80626 | 0.13053 | 22717 ft | 409 kts | 57° |
| 2026-05-04 09:20 | 51.82172 | 0.16945 | 23239 ft | 415 kts | 57° |
| 2026-05-04 09:20 | 51.83739 | 0.20905 | 23724 ft | 420 kts | 57° |
| 2026-05-04 09:21 | 51.85319 | 0.24908 | 24188 ft | 425 kts | 57° |
| 2026-05-04 09:21 | 51.86911 | 0.28957 | 24640 ft | 428 kts | 57° |
| 2026-05-04 09:21 | 51.88516 | 0.33046 | 25102 ft | 432 kts | 58° |
| 2026-05-04 09:21 | 51.90134 | 0.37176 | 25561 ft | 436 kts | 58° |
| 2026-05-04 09:22 | 51.91761 | 0.41333 | 26012 ft | 439 kts | 58° |
| 2026-05-04 09:22 | 51.93401 | 0.45537 | 26461 ft | 443 kts | 58° |
| 2026-05-04 09:22 | 51.95051 | 0.49778 | 26889 ft | 447 kts | 59° |
| 2026-05-04 09:22 | 51.96716 | 0.54058 | 27309 ft | 451 kts | 59° |
| 2026-05-04 09:23 | 51.98395 | 0.58375 | 27730 ft | 455 kts | 59° |
| 2026-05-04 09:23 | 52.00089 | 0.62730 | 28159 ft | 458 kts | 59° |
| 2026-05-04 09:23 | 52.01799 | 0.67135 | 28583 ft | 462 kts | 60° |
| 2026-05-04 09:23 | 52.03513 | 0.71571 | 29000 ft | 466 kts | 60° |
| 2026-05-04 09:25 | 52.15790 | 1.03543 | 31744 ft | 482 kts | 59° |
| 2026-05-04 09:25 | 52.17560 | 1.08182 | 32237 ft | 480 kts | 59° |
| 2026-05-04 09:26 | 52.18723 | 1.11235 | 32632 ft | 478 kts | 59° |
| 2026-05-04 09:26 | 52.20467 | 1.15813 | 33243 ft | 473 kts | 58° |
| 2026-05-04 09:26 | 52.22191 | 1.20352 | 33883 ft | 469 kts | 58° |
| 2026-05-04 09:26 | 52.23897 | 1.24853 | 34428 ft | 464 kts | 58° |
| 2026-05-04 09:27 | 52.25589 | 1.29327 | 34877 ft | 462 kts | 58° |
| 2026-05-04 09:27 | 52.27274 | 1.33787 | 35280 ft | 461 kts | 58° |
| 2026-05-04 09:27 | 52.28954 | 1.38243 | 35654 ft | 460 kts | 59° |
| 2026-05-04 09:27 | 52.30626 | 1.42691 | 36018 ft | 460 kts | 59° |
| 2026-05-04 09:28 | 52.32296 | 1.47143 | 36376 ft | 459 kts | 59° |
| 2026-05-04 09:28 | 52.34148 | 1.51396 | 36689 ft | 459 kts | 50° |
| 2026-05-04 09:28 | 52.36332 | 1.55203 | 36994 ft | 459 kts | 45° |
| 2026-05-04 09:28 | 52.38571 | 1.58939 | 37310 ft | 459 kts | 45° |
| 2026-05-04 09:29 | 52.40802 | 1.62674 | 37631 ft | 459 kts | 45° |
| 2026-05-04 09:29 | 52.43026 | 1.66412 | 37953 ft | 458 kts | 46° |
| 2026-05-04 09:29 | 52.45246 | 1.70157 | 38267 ft | 458 kts | 46° |
| 2026-05-04 09:29 | 52.47461 | 1.73903 | 38570 ft | 457 kts | 46° |
| 2026-05-04 09:30 | 52.49675 | 1.77647 | 38819 ft | 457 kts | 46° |
| 2026-05-04 09:30 | 52.51860 | 1.81343 | 38984 ft | 457 kts | 46° |
| 2026-05-04 09:30 | 52.56295 | 1.88876 | 39034 ft | 459 kts | 46° |
| 2026-05-04 09:31 | 52.60732 | 1.96432 | 39032 ft | 460 kts | 46° |
| 2026-05-04 09:31 | 52.65181 | 2.04020 | 39038 ft | 460 kts | 46° |
| 2026-05-04 09:32 | 52.69619 | 2.11627 | 39034 ft | 460 kts | 46° |
| 2026-05-04 09:34 | 52.87342 | 2.42245 | 39040 ft | 461 kts | 46° |
| 2026-05-04 09:34 | 52.91763 | 2.49946 | 39038 ft | 461 kts | 46° |
| 2026-05-04 09:35 | 52.96185 | 2.57665 | 39031 ft | 461 kts | 46° |
| 2026-05-04 09:35 | 53.01248 | 2.64126 | 39044 ft | 460 kts | 27° |
| 2026-05-04 09:37 | 53.24165 | 2.83179 | 39035 ft | 461 kts | 26° |
| 2026-05-04 09:38 | 53.29858 | 2.87967 | 39032 ft | 461 kts | 25° |
| 2026-05-04 09:38 | 53.35647 | 2.92580 | 39033 ft | 461 kts | 24° |
| 2026-05-04 09:39 | 53.41481 | 2.97042 | 39036 ft | 461 kts | 23° |
| 2026-05-04 09:39 | 53.47310 | 3.01553 | 39041 ft | 461 kts | 24° |
| 2026-05-04 09:40 | 53.53122 | 3.06147 | 39037 ft | 461 kts | 24° |
| 2026-05-04 09:40 | 53.58926 | 3.10762 | 39044 ft | 461 kts | 24° |
| 2026-05-04 09:42 | 53.82165 | 3.29281 | 39058 ft | 462 kts | 24° |
| 2026-05-04 09:43 | 53.87978 | 3.33964 | 39053 ft | 462 kts | 24° |
| 2026-05-04 09:43 | 53.93786 | 3.38656 | 39059 ft | 462 kts | 24° |
| 2026-05-04 09:44 | 53.99560 | 3.43320 | 39064 ft | 462 kts | 24° |
| 2026-05-04 09:46 | 54.22782 | 3.62246 | 39072 ft | 463 kts | 24° |
| 2026-05-04 09:46 | 54.28591 | 3.67009 | 39071 ft | 463 kts | 24° |
| 2026-05-04 09:47 | 54.34382 | 3.71788 | 39071 ft | 463 kts | 24° |
| 2026-05-04 09:49 | 54.57570 | 3.91045 | 39068 ft | 463 kts | 24° |
| 2026-05-04 09:51 | 54.77848 | 4.08107 | 39073 ft | 462 kts | 24° |
| 2026-05-04 09:51 | 54.83621 | 4.13025 | 39062 ft | 463 kts | 27° |
| 2026-05-04 09:52 | 54.88754 | 4.19778 | 39056 ft | 466 kts | 46° |
| 2026-05-04 09:52 | 54.93132 | 4.28093 | 39055 ft | 467 kts | 46° |
| 2026-05-04 09:53 | 54.97525 | 4.36417 | 39067 ft | 467 kts | 46° |
| 2026-05-04 09:53 | 55.01920 | 4.44759 | 39041 ft | 467 kts | 46° |
| 2026-05-04 09:54 | 55.06314 | 4.53139 | 39039 ft | 468 kts | 46° |
| 2026-05-04 09:54 | 55.10670 | 4.61490 | 39045 ft | 468 kts | 46° |
| 2026-05-04 09:55 | 55.15051 | 4.69910 | 39047 ft | 468 kts | 46° |
| 2026-05-04 09:55 | 55.19427 | 4.78359 | 39066 ft | 468 kts | 46° |
| 2026-05-04 09:56 | 55.23800 | 4.86824 | 39071 ft | 468 kts | 46° |
| 2026-05-04 09:56 | 55.28157 | 4.95298 | 39067 ft | 468 kts | 46° |
| 2026-05-04 09:57 | 55.32234 | 5.04186 | 39064 ft | 469 kts | 54° |
| 2026-05-04 09:57 | 55.35959 | 5.13609 | 39060 ft | 469 kts | 54° |
| 2026-05-04 09:58 | 55.39686 | 5.23029 | 39060 ft | 469 kts | 54° |
| 2026-05-04 09:58 | 55.43406 | 5.32462 | 39069 ft | 469 kts | 54° |
| 2026-05-04 10:00 | 55.58215 | 5.70463 | 39047 ft | 471 kts | 54° |
| 2026-05-04 10:04 | 55.83931 | 6.37850 | 39033 ft | 473 kts | 54° |
| 2026-05-04 10:04 | 55.87591 | 6.47575 | 39034 ft | 473 kts | 55° |
| 2026-05-04 10:05 | 55.91234 | 6.57339 | 39035 ft | 473 kts | 55° |
| 2026-05-04 10:05 | 55.94876 | 6.67121 | 39028 ft | 473 kts | 55° |
| 2026-05-04 10:06 | 55.98512 | 6.76909 | 39033 ft | 473 kts | 55° |
| 2026-05-04 10:06 | 56.02138 | 6.86728 | 39014 ft | 474 kts | 55° |
| 2026-05-04 10:08 | 56.14815 | 7.21302 | 39034 ft | 475 kts | 55° |
| 2026-05-04 10:08 | 56.18422 | 7.31260 | 39027 ft | 475 kts | 55° |
| 2026-05-04 10:09 | 56.22023 | 7.41217 | 39009 ft | 475 kts | 55° |
| 2026-05-04 10:09 | 56.25613 | 7.51201 | 39008 ft | 476 kts | 56° |
| 2026-05-04 10:10 | 56.28597 | 7.59522 | 38992 ft | 476 kts | 56° |
| 2026-05-04 10:10 | 56.32178 | 7.69553 | 39001 ft | 477 kts | 56° |
| 2026-05-04 10:11 | 56.35757 | 7.79617 | 39015 ft | 477 kts | 56° |
| 2026-05-04 10:11 | 56.39333 | 7.89704 | 38998 ft | 477 kts | 56° |
| 2026-05-04 10:12 | 56.42905 | 7.99815 | 38998 ft | 477 kts | 56° |
| 2026-05-04 10:12 | 56.46449 | 8.09891 | 38986 ft | 478 kts | 56° |
| 2026-05-04 10:13 | 56.49999 | 8.20053 | 38982 ft | 478 kts | 56° |
| 2026-05-04 10:13 | 56.53555 | 8.30274 | 38981 ft | 479 kts | 56° |
| 2026-05-04 10:14 | 56.57108 | 8.40496 | 38977 ft | 479 kts | 56° |
| 2026-05-04 10:16 | 56.71229 | 8.81656 | 38954 ft | 480 kts | 57° |
| 2026-05-04 10:16 | 56.74742 | 8.92009 | 38929 ft | 481 kts | 57° |
| 2026-05-04 10:17 | 56.76502 | 8.97204 | 38721 ft | 481 kts | 57° |
| 2026-05-04 10:17 | 56.78233 | 9.02319 | 38480 ft | 481 kts | 57° |
| 2026-05-04 10:19 | 56.90542 | 9.39092 | 34745 ft | 483 kts | 56° |
| 2026-05-04 10:19 | 56.92285 | 9.44340 | 34212 ft | 481 kts | 57° |
| 2026-05-04 10:19 | 56.94019 | 9.49569 | 33648 ft | 480 kts | 57° |
| 2026-05-04 10:19 | 56.95742 | 9.54778 | 33105 ft | 476 kts | 57° |
| 2026-05-04 10:20 | 56.97447 | 9.59944 | 32575 ft | 472 kts | 57° |
| 2026-05-04 10:20 | 56.99141 | 9.65094 | 32049 ft | 468 kts | 57° |
| 2026-05-04 10:20 | 57.00789 | 9.70119 | 31564 ft | 464 kts | 56° |
| 2026-05-04 10:20 | 57.02470 | 9.75249 | 31005 ft | 461 kts | 56° |
| 2026-05-04 10:21 | 57.04115 | 9.80283 | 30511 ft | 457 kts | 56° |
| 2026-05-04 10:21 | 57.05742 | 9.85269 | 30016 ft | 453 kts | 56° |
| 2026-05-04 10:21 | 57.07351 | 9.90211 | 29478 ft | 449 kts | 57° |
| 2026-05-04 10:21 | 57.08921 | 9.95048 | 29038 ft | 443 kts | 57° |
| 2026-05-04 10:22 | 57.11677 | 10.04990 | 28226 ft | 432 kts | 64° |
| 2026-05-04 10:22 | 57.12872 | 10.10027 | 27830 ft | 427 kts | 64° |
| 2026-05-04 10:22 | 57.14054 | 10.15007 | 27437 ft | 423 kts | 65° |
| 2026-05-04 10:23 | 57.15227 | 10.19952 | 27047 ft | 419 kts | 65° |
| 2026-05-04 10:23 | 57.16384 | 10.24847 | 26660 ft | 416 kts | 65° |
| 2026-05-04 10:25 | 57.24208 | 10.58247 | 23882 ft | 397 kts | 65° |
| 2026-05-04 10:25 | 57.25295 | 10.62927 | 23472 ft | 395 kts | 65° |
| 2026-05-04 10:25 | 57.26373 | 10.67575 | 23011 ft | 393 kts | 65° |
| 2026-05-04 10:25 | 57.27441 | 10.72193 | 22605 ft | 389 kts | 65° |
| 2026-05-04 10:26 | 57.28494 | 10.76774 | 22170 ft | 386 kts | 65° |
| 2026-05-04 10:26 | 57.29534 | 10.81317 | 21801 ft | 382 kts | 65° |
| 2026-05-04 10:26 | 57.30833 | 10.85505 | 21436 ft | 374 kts | 53° |
| 2026-05-04 10:26 | 57.32316 | 10.89533 | 20757 ft | 381 kts | 52° |
| 2026-05-04 10:27 | 57.33832 | 10.93579 | 20300 ft | 383 kts | 52° |
| 2026-05-04 10:27 | 57.35354 | 10.97624 | 19814 ft | 382 kts | 52° |
| 2026-05-04 10:27 | 57.36873 | 11.01662 | 19361 ft | 381 kts | 52° |
| 2026-05-04 10:27 | 57.38379 | 11.05692 | 18925 ft | 379 kts | 52° |
| 2026-05-04 10:28 | 57.39872 | 11.09707 | 18492 ft | 378 kts | 52° |
| 2026-05-04 10:28 | 57.41357 | 11.13713 | 18054 ft | 376 kts | 52° |
| 2026-05-04 10:28 | 57.42834 | 11.17705 | 17563 ft | 374 kts | 52° |
| 2026-05-04 10:28 | 57.44303 | 11.21681 | 17116 ft | 373 kts | 52° |
| 2026-05-04 10:29 | 57.45761 | 11.25641 | 16640 ft | 371 kts | 53° |
| 2026-05-04 10:29 | 57.47210 | 11.29586 | 16166 ft | 369 kts | 53° |
| 2026-05-04 10:29 | 57.48653 | 11.33516 | 15707 ft | 367 kts | 53° |
| 2026-05-04 10:29 | 57.50085 | 11.37422 | 15253 ft | 364 kts | 53° |
| 2026-05-04 10:30 | 57.51510 | 11.41311 | 14798 ft | 362 kts | 53° |
| 2026-05-04 10:30 | 57.52922 | 11.45170 | 14351 ft | 360 kts | 53° |
| 2026-05-04 10:30 | 57.54325 | 11.49011 | 13914 ft | 358 kts | 53° |
| 2026-05-04 10:30 | 57.55718 | 11.52834 | 13462 ft | 355 kts | 53° |
| 2026-05-04 10:31 | 57.57096 | 11.56634 | 13029 ft | 352 kts | 53° |
| 2026-05-04 10:31 | 57.58457 | 11.60386 | 12633 ft | 347 kts | 53° |
| 2026-05-04 10:32 | 57.66283 | 11.82023 | 10614 ft | 325 kts | 53° |
| 2026-05-04 10:33 | 57.67541 | 11.85517 | 10368 ft | 322 kts | 53° |
| 2026-05-04 10:33 | 57.68779 | 11.88969 | 10120 ft | 317 kts | 53° |
| 2026-05-04 10:33 | 57.69995 | 11.92372 | 9873 ft | 313 kts | 53° |
| 2026-05-04 10:33 | 57.71199 | 11.95746 | 9493 ft | 312 kts | 53° |
| 2026-05-04 10:34 | 57.72401 | 11.99113 | 9096 ft | 310 kts | 53° |
| 2026-05-04 10:34 | 57.73598 | 12.02465 | 8710 ft | 309 kts | 53° |
| 2026-05-04 10:34 | 57.74794 | 12.05810 | 8319 ft | 308 kts | 53° |
| 2026-05-04 10:34 | 57.75978 | 12.09134 | 7959 ft | 306 kts | 53° |
| 2026-05-04 10:35 | 57.77154 | 12.12444 | 7587 ft | 304 kts | 53° |
| 2026-05-04 10:35 | 57.78324 | 12.15741 | 7235 ft | 302 kts | 53° |
| 2026-05-04 10:35 | 57.79485 | 12.19011 | 6876 ft | 300 kts | 53° |
| 2026-05-04 10:35 | 57.80828 | 12.21946 | 6527 ft | 293 kts | 38° |
| 2026-05-04 10:36 | 57.82457 | 12.24122 | 6303 ft | 281 kts | 24° |
| 2026-05-04 10:36 | 57.84144 | 12.25794 | 6148 ft | 268 kts | 24° |
| 2026-05-04 10:36 | 57.85587 | 12.27985 | 5874 ft | 267 kts | 46° |
| 2026-05-04 10:36 | 57.86559 | 12.30974 | 5657 ft | 274 kts | 65° |
| 2026-05-04 10:37 | 57.86950 | 12.34520 | 4957 ft | 283 kts | 91° |
| 2026-05-04 10:37 | 57.86446 | 12.38077 | 4240 ft | 285 kts | 123° |
| 2026-05-04 10:37 | 57.85079 | 12.40627 | 3602 ft | 276 kts | 156° |
| 2026-05-04 10:37 | 57.83277 | 12.41524 | 2983 ft | 265 kts | 181° |
| 2026-05-04 10:39 | 57.75254 | 12.36181 | 2245 ft | 164 kts | 212° |
| 2026-05-04 10:39 | 57.74255 | 12.35267 | 2038 ft | 153 kts | 212° |
| 2026-05-04 10:39 | 57.73348 | 12.34438 | 1833 ft | 140 kts | 211° |
| 2026-05-04 10:40 | 57.72500 | 12.33662 | 1658 ft | 130 kts | 212° |
| 2026-05-04 10:40 | 57.71690 | 12.32919 | 1477 ft | 129 kts | 211° |
| 2026-05-04 10:40 | 57.70886 | 12.32182 | 1290 ft | 130 kts | 210° |
| 2026-05-04 10:40 | 57.70082 | 12.31455 | 1090 ft | 128 kts | 212° |
| 2026-05-04 10:41 | 57.69277 | 12.30718 | 906 ft | 126 kts | 211° |
| 2026-05-04 10:41 | 57.68494 | 12.29982 | 770 ft | 130 kts | 210° |
| 2026-05-04 10:41 | 57.67687 | 12.29257 | 594 ft | 126 kts | 211° |
| 2026-05-04 10:41 | 57.66931 | 12.28577 | 529 ft | 108 kts | 212° |
| 2026-05-04 10:42 | 57.66368 | 12.28046 | 520 ft | 67 kts | 206° |
| 2026-05-04 10:42 | 57.66050 | 12.27764 | 515 ft | 36 kts | 204° |
| 2026-05-04 10:42 | 57.65826 | 12.27677 | 515 ft | 22 kts | 168° |
| 2026-05-04 10:42 | 57.65763 | 12.27685 | 515 ft | 5 kts | 176° |
| 2026-05-04 10:43 | 57.65719 | 12.27718 | 515 ft | 9 kts | 127° |
| 2026-05-04 10:44 | 57.66293 | 12.28350 | 520 ft | 10 kts | 39° |
| 2026-05-04 10:45 | 57.66304 | 12.28361 | 521 ft | 5 kts | 27° |
| 2026-05-04 10:45 | 57.66371 | 12.28412 | 521 ft | 16 kts | 22° |
| 2026-05-04 10:45 | 57.66498 | 12.28522 | 522 ft | 22 kts | 26° |
| 2026-05-04 10:45 | 57.66634 | 12.28646 | 524 ft | 17 kts | 25° |
| 2026-05-04 10:46 | 57.66644 | 12.28832 | 524 ft | 18 kts | 118° |
| 2026-05-04 10:46 | 57.66614 | 12.29009 | 525 ft | 12 kts | 62° |
| 2026-05-04 10:46 | 57.66650 | 12.29094 | 525 ft | 8 kts | 109° |
| 2026-05-04 10:46 | 57.66629 | 12.29174 | 525 ft | 3 kts | 115° |
| 2026-05-04 10:47 | 57.66626 | 12.29187 | 525 ft | 0 kts | 115° |